Time;durP1;ratioP1;P1;durP2;ratioP2;P2;SDS_P1;SDS_P2;PMS_P1;PMS_P2;Temp;Humidity;BMP_temperature;BMP_pressure;BME280_temperature;BME280_humidity;BME280_pressure;Samples;Min_cycle;Max_cycle;Signal;HPM_P1;HPM_P2
2022/05/03 00:00:01;;;;;;;2.13;2.03;;;12.20;99.90;;;;;;5028587;28;20224;-73
2022/05/03 00:02:50;;;;;;;2.70;2.28;;;12.20;99.90;;;;;;5027620;28;20254;-76
2022/05/03 00:05:27;;;;;;;2.10;2.00;;;12.10;99.90;;;;;;5028560;28;20655;-75
2022/05/03 00:08:01;;;;;;;2.08;1.98;;;12.20;99.90;;;;;;5025795;28;20206;-76
2022/05/03 00:10:37;;;;;;;2.40;2.20;;;12.20;99.90;;;;;;5029578;28;20233;-76
2022/05/03 00:13:07;;;;;;;2.42;2.20;;;12.20;99.90;;;;;;5028344;28;20284;-74
2022/05/03 00:15:40;;;;;;;2.38;2.17;;;12.20;99.90;;;;;;5031236;28;20294;-78
2022/05/03 00:18:08;;;;;;;2.00;1.90;;;12.20;99.90;;;;;;5033207;28;20374;-78
2022/05/03 00:20:36;;;;;;;2.20;2.10;;;12.10;99.90;;;;;;5030301;28;20226;-74
2022/05/03 00:23:04;;;;;;;2.60;2.40;;;12.10;99.90;;;;;;5032443;28;20226;-75
2022/05/03 00:25:32;;;;;;;2.20;2.10;;;12.10;99.90;;;;;;5032749;28;20234;-75
2022/05/03 00:28:01;;;;;;;2.40;2.30;;;12.10;99.90;;;;;;5032001;28;20203;-78
2022/05/03 00:30:29;;;;;;;2.10;2.00;;;12.10;99.90;;;;;;5028474;28;20702;-75
2022/05/03 00:32:59;;;;;;;2.10;2.00;;;12.00;99.90;;;;;;5031591;28;20222;-74
2022/05/03 00:35:27;;;;;;;2.28;2.17;;;12.00;99.90;;;;;;5028147;28;20215;-78
2022/05/03 00:37:55;;;;;;;2.30;2.10;;;12.00;99.90;;;;;;5032401;28;20204;-75
2022/05/03 00:40:23;;;;;;;2.00;1.83;;;12.00;99.90;;;;;;5028537;28;20584;-77
2022/05/03 00:43:02;;;;;;;2.10;1.85;;;12.00;99.90;;;;;;5030528;28;20580;-76
2022/05/03 00:45:38;;;;;;;2.13;1.67;;;12.00;99.90;;;;;;5027920;28;20223;-76
2022/05/03 00:48:22;;;;;;;2.53;1.90;;;12.00;99.90;;;;;;5030172;28;20605;-75
2022/05/03 00:51:03;;;;;;;2.63;1.88;;;12.00;99.90;;;;;;5024761;28;20430;-72
2022/05/03 00:53:34;;;;;;;2.10;1.90;;;12.00;99.90;;;;;;5026978;28;20231;-80
2022/05/03 00:56:38;;;;;;;1.92;1.83;;;12.00;99.90;;;;;;5028005;28;20223;-78
2022/05/03 00:59:17;;;;;;;1.92;1.83;;;11.90;99.90;;;;;;5020738;28;20212;-81
2022/05/03 01:01:55;;;;;;;2.30;2.20;;;11.90;99.90;;;;;;5030986;28;20224;-75
2022/05/03 01:04:36;;;;;;;2.00;1.90;;;11.80;99.90;;;;;;5028757;28;20227;-78
2022/05/03 01:07:14;;;;;;;2.65;2.05;;;11.80;99.90;;;;;;5033459;28;20223;-77
2022/05/03 01:09:44;;;;;;;2.25;2.15;;;11.70;99.90;;;;;;5029141;28;20223;-78
2022/05/03 01:12:24;;;;;;;3.00;2.10;;;11.80;99.90;;;;;;5032305;28;20220;-80
2022/05/03 01:15:07;;;;;;;2.33;2.17;;;11.70;99.90;;;;;;5027613;28;20230;-74
2022/05/03 01:17:44;;;;;;;1.90;1.80;;;11.70;99.90;;;;;;5025242;28;20196;-76
2022/05/03 01:20:17;;;;;;;2.85;2.30;;;11.70;99.90;;;;;;5032016;28;20304;-77
2022/05/03 01:23:31;;;;;;;2.20;2.00;;;11.70;99.90;;;;;;5029231;28;20219;-79
2022/05/03 01:26:35;;;;;;;2.20;2.00;;;11.70;99.90;;;;;;5029635;28;20243;-79
2022/05/03 01:29:25;;;;;;;2.65;1.90;;;11.70;99.90;;;;;;5022592;28;20210;-79
2022/05/03 01:31:56;;;;;;;1.83;1.73;;;11.70;99.90;;;;;;5031110;28;20219;-77
2022/05/03 01:34:26;;;;;;;1.80;1.70;;;11.70;99.90;;;;;;5028756;28;20231;-80
2022/05/03 01:37:13;;;;;;;1.92;1.83;;;11.70;99.90;;;;;;5034422;28;20255;-79
2022/05/03 01:39:51;;;;;;;1.95;1.85;;;11.60;99.90;;;;;;5027493;28;20219;-79
2022/05/03 01:42:27;;;;;;;2.00;1.90;;;11.60;99.90;;;;;;5030893;28;20223;-81
2022/05/03 01:45:05;;;;;;;2.33;2.05;;;11.60;99.90;;;;;;5032814;28;20223;-80
2022/05/03 01:47:46;;;;;;;2.50;2.30;;;11.50;99.90;;;;;;5031054;28;20212;-79
2022/05/03 01:50:25;;;;;;;2.17;2.08;;;11.50;99.90;;;;;;5031365;28;20720;-76
2022/05/03 01:53:08;;;;;;;1.92;1.83;;;11.40;99.90;;;;;;5034384;28;20222;-80
2022/05/03 01:56:15;;;;;;;1.88;1.77;;;11.40;99.90;;;;;;5032787;28;20267;-77
2022/05/03 01:59:02;;;;;;;2.20;2.10;;;11.40;99.90;;;;;;5025824;28;20204;-74
2022/05/03 02:01:53;;;;;;;1.88;1.75;;;11.40;99.90;;;;;;5026961;28;20251;-81
2022/05/03 02:04:49;;;;;;;2.30;2.10;;;11.30;99.90;;;;;;5032361;28;20200;-77
2022/05/03 02:07:36;;;;;;;2.30;2.00;;;11.30;99.90;;;;;;5035111;28;20219;-75
2022/05/03 02:10:12;;;;;;;2.38;2.22;;;11.30;99.90;;;;;;5030379;28;20216;-79
2022/05/03 02:12:42;;;;;;;1.80;1.70;;;11.30;99.90;;;;;;5036511;28;20582;-79
2022/05/03 02:15:10;;;;;;;2.10;2.00;;;11.30;99.90;;;;;;5035630;28;20614;-81
2022/05/03 02:18:04;;;;;;;2.00;1.90;;;11.20;99.90;;;;;;5035453;28;20241;-76
2022/05/03 02:20:47;;;;;;;1.80;1.70;;;11.20;99.90;;;;;;5025404;28;20227;-78
2022/05/03 02:23:39;;;;;;;2.17;1.90;;;11.20;99.90;;;;;;5034049;28;20227;-75
2022/05/03 02:26:19;;;;;;;2.42;2.17;;;11.20;99.90;;;;;;5036080;28;20274;-78
2022/05/03 02:28:52;;;;;;;2.40;2.25;;;11.20;99.90;;;;;;5036836;28;20636;-79
2022/05/03 02:31:24;;;;;;;2.10;2.00;;;11.10;99.90;;;;;;5034636;28;20224;-78
2022/05/03 02:34:06;;;;;;;2.00;1.90;;;11.10;99.90;;;;;;5031920;28;20238;-78
2022/05/03 02:36:42;;;;;;;2.78;2.58;;;11.10;99.90;;;;;;5033451;28;20223;-76
2022/05/03 02:39:13;;;;;;;2.50;2.30;;;11.10;99.90;;;;;;5039025;28;20199;-80
2022/05/03 02:41:43;;;;;;;2.40;2.30;;;11.10;99.90;;;;;;5029530;28;20303;-76
2022/05/03 02:44:13;;;;;;;2.33;2.22;;;11.10;99.90;;;;;;5032476;28;20202;-78
2022/05/03 02:46:57;;;;;;;2.38;2.20;;;11.00;99.90;;;;;;5028818;28;20239;-78
2022/05/03 02:49:43;;;;;;;2.25;2.05;;;11.00;99.90;;;;;;5035801;28;20211;-82
2022/05/03 02:52:17;;;;;;;2.47;2.28;;;11.00;99.90;;;;;;5036500;28;20275;-77
2022/05/03 02:55:03;;;;;;;1.98;1.88;;;11.00;99.90;;;;;;5031462;28;20224;-77
2022/05/03 02:57:38;;;;;;;2.40;2.20;;;11.00;99.90;;;;;;5037504;28;20199;-78
2022/05/03 03:03:38;;;;;;;2.50;2.30;;;11.00;99.90;;;;;;5035374;28;20297;-80
2022/05/03 03:06:20;;;;;;;2.10;1.90;;;10.90;99.90;;;;;;5023802;28;20227;-80
2022/05/03 03:08:50;;;;;;;2.50;2.30;;;10.80;99.90;;;;;;5032760;28;20202;-77
2022/05/03 03:11:25;;;;;;;2.30;2.10;;;10.80;99.90;;;;;;5016281;28;20238;-77
2022/05/03 03:14:07;;;;;;;2.55;2.35;;;10.80;99.90;;;;;;5013942;28;20215;-75
2022/05/03 03:16:35;;;;;;;2.25;2.15;;;10.80;99.90;;;;;;5016439;28;20279;-76
2022/05/03 03:19:15;;;;;;;2.05;1.95;;;10.70;99.90;;;;;;5015800;28;20264;-76
2022/05/03 03:21:49;;;;;;;1.98;1.88;;;10.80;99.90;;;;;;5013509;28;20227;-77
2022/05/03 03:24:19;;;;;;;2.60;2.40;;;10.80;99.90;;;;;;5018235;28;20269;-75
2022/05/03 03:26:48;;;;;;;2.47;2.33;;;10.70;99.90;;;;;;5003758;28;20832;-77
2022/05/03 03:29:19;;;;;;;2.53;2.33;;;10.70;99.90;;;;;;5011352;28;20201;-75
2022/05/03 03:31:49;;;;;;;2.47;2.13;;;10.60;99.90;;;;;;5016240;28;20661;-77
2022/05/03 03:34:17;;;;;;;2.33;2.13;;;10.60;99.90;;;;;;5015625;28;20235;-74
2022/05/03 03:36:48;;;;;;;2.10;2.00;;;10.60;99.90;;;;;;5011239;28;20230;-74
2022/05/03 03:39:15;;;;;;;2.60;2.40;;;10.70;99.90;;;;;;5014897;28;20208;-76
2022/05/03 03:41:43;;;;;;;2.70;2.50;;;10.80;99.90;;;;;;5009712;28;20239;-74
2022/05/03 03:44:11;;;;;;;3.45;2.58;;;10.70;99.90;;;;;;5015569;28;20208;-78
2022/05/03 03:46:38;;;;;;;2.15;2.03;;;10.70;99.90;;;;;;5017634;28;20223;-77
2022/05/03 03:49:06;;;;;;;2.75;2.55;;;10.60;99.90;;;;;;5016063;28;20201;-76
2022/05/03 03:51:33;;;;;;;2.03;1.92;;;10.60;99.90;;;;;;5015916;28;20240;-76
2022/05/03 03:54:02;;;;;;;2.80;2.60;;;10.60;99.90;;;;;;5014541;28;20737;-78
2022/05/03 03:56:29;;;;;;;2.90;2.70;;;10.60;99.90;;;;;;5013493;28;20307;-78
2022/05/03 03:58:57;;;;;;;2.60;2.40;;;10.60;99.90;;;;;;5013848;28;20208;-81
2022/05/03 04:01:24;;;;;;;2.35;2.15;;;10.60;99.90;;;;;;5014890;28;20254;-76
2022/05/03 04:03:52;;;;;;;2.40;2.30;;;10.60;99.90;;;;;;5015180;28;20635;-78
2022/05/03 04:06:19;;;;;;;2.55;2.40;;;10.70;99.90;;;;;;5014293;28;20229;-79
2022/05/03 04:08:46;;;;;;;2.80;2.60;;;10.70;99.90;;;;;;5013400;28;20251;-75
2022/05/03 04:11:18;;;;;;;2.58;2.38;;;10.70;99.90;;;;;;5005849;28;20322;-76
2022/05/03 04:13:46;;;;;;;2.13;2.03;;;10.60;99.90;;;;;;5013900;28;20652;-78
2022/05/03 04:16:13;;;;;;;2.92;2.40;;;10.60;99.90;;;;;;5013645;28;20283;-76
2022/05/03 04:18:45;;;;;;;2.58;2.38;;;10.60;99.90;;;;;;5013131;28;20717;-77
2022/05/03 04:21:17;;;;;;;2.45;2.25;;;10.60;99.90;;;;;;5025980;28;20249;-78
2022/05/03 04:23:45;;;;;;;2.40;2.30;;;10.60;99.90;;;;;;5033878;28;20204;-78
2022/05/03 04:26:12;;;;;;;2.50;2.30;;;10.60;99.90;;;;;;5031784;28;20227;-78
2022/05/03 04:28:41;;;;;;;2.80;2.60;;;10.60;99.90;;;;;;5030368;28;20195;-75
2022/05/03 04:31:08;;;;;;;2.70;2.50;;;10.60;99.90;;;;;;5031242;28;20231;-75
2022/05/03 04:33:36;;;;;;;2.90;2.70;;;10.60;99.90;;;;;;5035731;28;20216;-76
2022/05/03 04:36:03;;;;;;;2.67;2.47;;;10.70;99.90;;;;;;5035601;28;20437;-78
2022/05/03 04:38:30;;;;;;;2.58;2.38;;;10.70;99.90;;;;;;5030645;28;20207;-77
2022/05/03 04:41:00;;;;;;;2.92;2.65;;;10.70;99.90;;;;;;5031865;28;20220;-78
2022/05/03 04:43:27;;;;;;;2.72;2.53;;;10.80;99.90;;;;;;5051656;22;21957;-77
2022/05/03 04:45:56;;;;;;;2.65;2.55;;;11.00;99.90;;;;;;5038092;28;20245;-77
2022/05/03 04:48:23;;;;;;;2.28;2.17;;;11.10;99.90;;;;;;5037042;28;20250;-77
2022/05/03 04:50:50;;;;;;;3.05;2.85;;;11.10;99.90;;;;;;5040970;28;20276;-77
2022/05/03 04:53:17;;;;;;;2.42;2.22;;;11.30;99.90;;;;;;5035539;28;20234;-79
2022/05/03 04:55:45;;;;;;;2.97;2.78;;;11.40;99.90;;;;;;5033997;28;20741;-77
2022/05/03 04:58:12;;;;;;;3.25;2.97;;;11.50;99.90;;;;;;5029233;28;20196;-77
2022/05/03 05:00:39;;;;;;;2.70;2.58;;;11.70;99.90;;;;;;5028307;28;20216;-77
2022/05/03 05:03:08;;;;;;;2.85;2.65;;;11.80;99.90;;;;;;5033067;28;20215;-77
2022/05/03 05:05:35;;;;;;;2.92;2.72;;;12.00;99.90;;;;;;5026061;28;20242;-77
2022/05/03 05:08:06;;;;;;;3.13;2.92;;;12.10;99.90;;;;;;5034340;28;20650;-77
2022/05/03 05:10:33;;;;;;;3.75;2.70;;;12.30;99.90;;;;;;5037880;28;20224;-78
2022/05/03 05:13:01;;;;;;;3.58;2.97;;;12.40;99.90;;;;;;5037013;28;20230;-77
2022/05/03 05:15:29;;;;;;;3.05;2.83;;;12.50;99.90;;;;;;5031276;28;20228;-77
2022/05/03 05:17:57;;;;;;;2.92;2.72;;;12.60;99.90;;;;;;5031261;28;20854;-77
2022/05/03 05:20:26;;;;;;;3.08;2.80;;;12.70;99.90;;;;;;5039022;28;20717;-77
2022/05/03 05:22:54;;;;;;;3.50;3.20;;;12.80;99.90;;;;;;5035929;28;20215;-77
2022/05/03 05:25:21;;;;;;;2.97;2.67;;;12.90;99.90;;;;;;5031130;28;20296;-77
2022/05/03 05:27:48;;;;;;;4.15;3.20;;;13.00;99.90;;;;;;5035879;28;20219;-77
2022/05/03 05:30:15;;;;;;;3.17;2.92;;;13.00;99.90;;;;;;5035076;28;20222;-77
2022/05/03 05:32:42;;;;;;;3.25;2.95;;;13.00;99.90;;;;;;5036221;28;20219;-77
2022/05/03 05:35:09;;;;;;;3.00;2.70;;;13.10;99.90;;;;;;5034030;28;20257;-77
2022/05/03 05:37:38;;;;;;;3.05;2.85;;;13.20;99.90;;;;;;5034976;28;20199;-77
2022/05/03 05:40:06;;;;;;;2.90;2.70;;;13.30;99.90;;;;;;5037824;28;20206;-77
2022/05/03 05:42:33;;;;;;;3.65;3.35;;;13.50;99.90;;;;;;5034905;28;20227;-77
2022/05/03 05:45:00;;;;;;;3.08;2.83;;;13.60;99.90;;;;;;5035355;28;20214;-77
2022/05/03 05:47:27;;;;;;;3.53;3.22;;;13.80;99.90;;;;;;5029608;28;20259;-77
2022/05/03 05:49:54;;;;;;;3.40;3.10;;;13.90;99.90;;;;;;5039871;28;20269;-77
2022/05/03 05:55:08;;;;;;;3.40;3.10;;;14.00;99.90;;;;;;5037238;28;20292;-77
2022/05/03 05:57:35;;;;;;;3.47;2.97;;;14.00;99.90;;;;;;5039632;28;20223;-76
2022/05/03 06:00:04;;;;;;;4.65;2.72;;;14.00;99.90;;;;;;5034808;28;20191;-79
2022/05/03 06:02:31;;;;;;;3.50;3.20;;;14.10;99.90;;;;;;5036009;28;20273;-77
2022/05/03 06:04:58;;;;;;;4.50;3.38;;;14.10;99.90;;;;;;5034613;28;20662;-77
2022/05/03 06:07:25;;;;;;;2.78;2.58;;;14.20;99.90;;;;;;5032724;28;20289;-77
2022/05/03 06:09:52;;;;;;;2.65;2.45;;;14.20;99.90;;;;;;5041174;28;20253;-77
2022/05/03 06:12:20;;;;;;;4.32;3.00;;;14.30;99.90;;;;;;5033529;28;20222;-77
2022/05/03 06:14:47;;;;;;;3.38;2.58;;;14.40;99.90;;;;;;5031581;28;20794;-77
2022/05/03 06:17:14;;;;;;;4.00;2.72;;;14.60;99.90;;;;;;5035348;28;20796;-77
2022/05/03 06:19:41;;;;;;;2.95;2.70;;;14.90;99.90;;;;;;5026404;28;20211;-77
2022/05/03 06:22:09;;;;;;;3.75;3.03;;;15.00;99.90;;;;;;5033373;28;20222;-77
2022/05/03 06:24:36;;;;;;;3.47;2.95;;;15.10;99.90;;;;;;5031258;28;20291;-77
2022/05/03 06:27:03;;;;;;;3.45;3.15;;;15.20;99.90;;;;;;5030469;28;20783;-76
2022/05/03 06:29:32;;;;;;;3.60;3.30;;;15.30;99.90;;;;;;5033290;28;20199;-77
2022/05/03 06:32:00;;;;;;;3.10;2.90;;;15.40;99.90;;;;;;5031297;28;20234;-77
2022/05/03 06:34:28;;;;;;;3.38;3.08;;;15.50;99.90;;;;;;5023087;28;20223;-77
2022/05/03 06:36:55;;;;;;;3.90;3.40;;;15.50;99.90;;;;;;5025414;28;20220;-77
2022/05/03 06:39:22;;;;;;;3.88;3.50;;;15.40;99.90;;;;;;5026787;28;20640;-78
2022/05/03 06:41:49;;;;;;;4.13;3.83;;;15.40;99.90;;;;;;5029128;28;20214;-76
2022/05/03 06:44:16;;;;;;;4.25;3.80;;;15.40;99.90;;;;;;5028559;28;20231;-77
2022/05/03 06:46:44;;;;;;;4.45;3.50;;;15.40;99.90;;;;;;5026407;28;20729;-76
2022/05/03 06:49:12;;;;;;;5.00;3.70;;;15.50;99.90;;;;;;5022119;28;20712;-77
2022/05/03 06:51:39;;;;;;;4.60;3.80;;;15.60;99.90;;;;;;5015309;28;20219;-78
2022/05/03 06:54:06;;;;;;;4.30;3.90;;;15.70;99.90;;;;;;5020719;28;20306;-77
2022/05/03 06:56:35;;;;;;;3.75;3.35;;;15.80;99.90;;;;;;5022786;28;20224;-76
2022/05/03 06:59:03;;;;;;;4.65;3.75;;;15.70;99.90;;;;;;5018428;28;20192;-76
2022/05/03 07:01:30;;;;;;;3.65;3.40;;;15.90;99.90;;;;;;5016130;28;20219;-76
2022/05/03 07:03:58;;;;;;;3.78;3.47;;;16.20;99.90;;;;;;5024587;28;20267;-77
2022/05/03 07:06:25;;;;;;;3.45;3.15;;;16.30;99.90;;;;;;5019340;28;20215;-75
2022/05/03 07:08:53;;;;;;;3.60;3.30;;;16.30;99.90;;;;;;5018003;28;20222;-76
2022/05/03 07:11:20;;;;;;;3.60;3.30;;;16.50;99.90;;;;;;5020540;28;20232;-77
2022/05/03 07:13:49;;;;;;;3.88;3.58;;;16.40;99.90;;;;;;5021137;28;20267;-77
2022/05/03 07:16:16;;;;;;;3.53;3.20;;;16.60;99.90;;;;;;5015254;28;20398;-77
2022/05/03 07:24:15;;;;;;;4.07;3.67;;;16.50;99.90;;;;;;5022700;28;20590;-76
2022/05/03 07:26:42;;;;;;;4.03;3.53;;;16.50;99.90;;;;;;5025068;28;20637;-76
2022/05/03 07:29:09;;;;;;;3.95;3.55;;;16.50;99.90;;;;;;5023846;28;20713;-74
2022/05/03 07:31:36;;;;;;;4.20;3.20;;;16.40;99.90;;;;;;5023605;28;20235;-77
2022/05/03 07:34:03;;;;;;;3.88;3.58;;;16.50;99.90;;;;;;5021412;28;20219;-77
2022/05/03 07:36:31;;;;;;;3.95;3.13;;;16.60;99.90;;;;;;5018721;28;20223;-77
2022/05/03 07:38:58;;;;;;;4.53;3.55;;;16.60;99.90;;;;;;5020839;28;20195;-77
2022/05/03 07:41:25;;;;;;;4.00;3.60;;;16.90;99.90;;;;;;5021018;28;20317;-75
2022/05/03 07:43:52;;;;;;;4.75;4.18;;;17.20;99.90;;;;;;5022219;28;20749;-76
2022/05/03 07:46:19;;;;;;;3.75;3.45;;;17.40;99.90;;;;;;5017337;28;20215;-76
2022/05/03 07:48:46;;;;;;;3.60;3.30;;;17.40;99.90;;;;;;5021407;28;20219;-77
2022/05/03 07:51:14;;;;;;;3.38;3.08;;;17.50;99.90;;;;;;5020228;28;20285;-76
2022/05/03 07:53:42;;;;;;;4.03;3.67;;;17.50;99.90;;;;;;5018543;28;20226;-75
2022/05/03 07:56:10;;;;;;;4.68;3.75;;;17.40;99.90;;;;;;5024255;28;20752;-76
2022/05/03 07:58:37;;;;;;;4.00;3.70;;;17.40;99.90;;;;;;5022115;28;20191;-76
2022/05/03 08:01:05;;;;;;;4.07;3.67;;;17.50;99.90;;;;;;5017696;28;20234;-77
2022/05/03 08:03:32;;;;;;;3.47;3.17;;;17.70;99.90;;;;;;5023758;28;21720;-76
2022/05/03 08:06:01;;;;;;;4.28;3.88;;;17.90;99.90;;;;;;5024168;28;20234;-76
2022/05/03 08:08:29;;;;;;;4.55;3.97;;;18.30;99.90;;;;;;5023324;28;20313;-75
2022/05/03 08:10:58;;;;;;;5.18;3.38;;;18.50;99.90;;;;;;5023345;28;20775;-75
2022/05/03 08:13:25;;;;;;;4.00;3.70;;;18.60;99.90;;;;;;5017919;28;20235;-76
2022/05/03 08:15:52;;;;;;;3.78;3.30;;;18.70;99.90;;;;;;5021497;28;20238;-76
2022/05/03 08:18:19;;;;;;;3.85;3.35;;;18.70;99.90;;;;;;5022239;28;20218;-76
2022/05/03 08:20:46;;;;;;;3.38;3.10;;;18.90;99.90;;;;;;5018674;28;20198;-76
2022/05/03 08:23:13;;;;;;;3.92;3.60;;;19.00;99.90;;;;;;5018117;28;20540;-75
2022/05/03 08:25:40;;;;;;;3.45;3.15;;;19.10;99.90;;;;;;5025644;28;20194;-76
2022/05/03 08:28:09;;;;;;;4.03;3.35;;;19.20;99.90;;;;;;5024312;28;20227;-76
2022/05/03 08:30:36;;;;;;;4.35;3.70;;;19.40;99.90;;;;;;5023252;28;20210;-76
2022/05/03 08:33:03;;;;;;;3.70;3.40;;;19.40;99.90;;;;;;5023235;28;21028;-76
2022/05/03 08:35:31;;;;;;;5.28;3.75;;;19.20;99.90;;;;;;5018373;28;20217;-77
2022/05/03 08:43:28;;;;;;;4.43;3.80;;;19.50;99.90;;;;;;5026671;28;20234;-76
2022/05/03 08:45:57;;;;;;;3.65;3.35;;;19.90;99.90;;;;;;5027981;28;20234;-74
2022/05/03 08:48:28;;;;;;;3.80;3.10;;;20.00;99.90;;;;;;5023241;28;20222;-75
2022/05/03 08:50:56;;;;;;;3.75;3.05;;;19.80;99.90;;;;;;5024488;28;20257;-75
2022/05/03 08:53:25;;;;;;;6.05;3.70;;;19.90;99.90;;;;;;5025556;28;20717;-76
2022/05/03 08:55:53;;;;;;;4.38;3.42;;;20.00;99.90;;;;;;5021201;28;20199;-74
2022/05/03 08:58:21;;;;;;;4.03;3.63;;;20.00;99.90;;;;;;5025287;28;20269;-76
2022/05/03 09:01:15;;;;;;;3.58;3.20;;;20.00;99.90;;;;;;5021260;28;20203;-74
2022/05/03 09:03:42;;;;;;;3.63;3.33;;;20.20;99.90;;;;;;5028181;28;20216;-77
2022/05/03 09:06:09;;;;;;;5.75;3.33;;;20.50;99.90;;;;;;5025880;28;20738;-77
2022/05/03 09:08:37;;;;;;;4.05;3.70;;;20.10;99.90;;;;;;5026675;28;20224;-76
2022/05/03 09:11:14;;;;;;;5.80;3.17;;;19.50;99.90;;;;;;5028596;28;20310;-77
2022/05/03 09:13:42;;;;;;;3.70;3.40;;;19.40;99.90;;;;;;5025498;28;20972;-76
2022/05/03 09:16:15;;;;;;;3.17;2.90;;;19.00;99.90;;;;;;5029147;28;20273;-77
2022/05/03 09:18:42;;;;;;;3.85;3.10;;;18.60;99.90;;;;;;5023517;28;20196;-75
2022/05/03 09:24:10;;;;;;;5.05;3.28;;;18.50;99.90;;;;;;5028341;28;20644;-76
2022/05/03 09:26:39;;;;;;;2.95;2.70;;;18.40;99.90;;;;;;5022427;28;20295;-76
2022/05/03 09:29:08;;;;;;;3.42;3.13;;;18.40;99.90;;;;;;5031487;28;20235;-75
2022/05/03 09:31:39;;;;;;;3.08;2.83;;;18.30;99.90;;;;;;5030499;28;20212;-77
2022/05/03 09:34:19;;;;;;;3.28;2.95;;;18.20;99.90;;;;;;5024442;28;20211;-76
2022/05/03 09:36:47;;;;;;;3.70;3.30;;;18.10;99.90;;;;;;5027958;28;20589;-77
2022/05/03 09:39:23;;;;;;;3.78;3.00;;;18.40;99.90;;;;;;5022095;28;20195;-74
2022/05/03 09:42:09;;;;;;;2.80;2.60;;;18.60;99.90;;;;;;5026888;28;20230;-76
2022/05/03 09:44:37;;;;;;;3.08;2.80;;;18.70;99.90;;;;;;5024712;28;20678;-74
2022/05/03 09:47:10;;;;;;;3.38;3.08;;;18.60;99.90;;;;;;5029735;28;20224;-76
2022/05/03 09:49:38;;;;;;;3.63;2.90;;;18.70;99.90;;;;;;5027275;28;20227;-75
2022/05/03 09:52:06;;;;;;;3.28;2.95;;;18.70;99.90;;;;;;5033289;28;20242;-76
2022/05/03 09:54:47;;;;;;;3.08;2.85;;;18.60;99.90;;;;;;5022930;28;20648;-75
2022/05/03 09:57:21;;;;;;;3.13;2.83;;;18.50;99.90;;;;;;5023608;28;20231;-76
2022/05/03 09:59:48;;;;;;;3.20;2.90;;;18.60;99.90;;;;;;5020884;28;20254;-77
2022/05/03 10:02:20;;;;;;;3.08;2.80;;;18.70;99.90;;;;;;5027303;28;20227;-76
2022/05/03 10:04:47;;;;;;;3.03;2.72;;;19.00;99.90;;;;;;5023932;28;20195;-76
2022/05/03 10:07:15;;;;;;;3.30;3.10;;;19.40;99.90;;;;;;5032168;28;20230;-76
2022/05/03 10:09:44;;;;;;;3.67;3.00;;;19.70;99.90;;;;;;5029000;28;20224;-76
2022/05/03 10:12:12;;;;;;;3.47;3.17;;;20.00;99.90;;;;;;5025634;28;20226;-76
2022/05/03 10:14:40;;;;;;;4.30;2.80;;;20.30;99.90;;;;;;5023197;28;20458;-77
2022/05/03 10:22:49;;;;;;;3.47;3.17;;;21.10;99.90;;;;;;5023920;28;20593;-76
2022/05/03 10:25:27;;;;;;;3.58;2.80;;;21.20;99.90;;;;;;5020715;28;20770;-73
2022/05/03 10:27:56;;;;;;;2.85;2.65;;;21.20;99.90;;;;;;5021065;28;20222;-76
2022/05/03 10:30:26;;;;;;;2.72;2.53;;;21.50;99.90;;;;;;5015980;28;20196;-75
2022/05/03 10:33:31;;;;;;;6.18;2.78;;;21.70;99.90;;;;;;5013228;28;20297;-75
2022/05/03 10:36:01;;;;;;;2.88;2.63;;;22.00;99.90;;;;;;5017217;28;20204;-77
2022/05/03 10:38:39;;;;;;;3.08;2.58;;;22.10;99.90;;;;;;5015137;28;20204;-75
2022/05/03 10:41:08;;;;;;;3.08;2.75;;;22.10;99.90;;;;;;5016085;28;20195;-75
2022/05/03 10:43:37;;;;;;;2.83;2.20;;;22.20;99.90;;;;;;5090979;22;20235;-76
2022/05/03 10:46:11;;;;;;;3.10;2.45;;;22.10;99.90;;;;;;5029267;28;20195;-76
2022/05/03 10:48:41;;;;;;;2.88;2.63;;;22.20;99.90;;;;;;5032778;28;20210;-76
2022/05/03 10:51:12;;;;;;;3.38;3.03;;;22.50;99.90;;;;;;5039162;28;20194;-76
2022/05/03 10:53:41;;;;;;;3.15;2.92;;;22.50;99.90;;;;;;5032423;28;20322;-76
2022/05/03 10:56:20;;;;;;;5.22;3.00;;;22.80;99.90;;;;;;5031149;28;20196;-77
2022/05/03 10:59:03;;;;;;;2.83;2.55;;;23.00;99.90;;;;;;5019932;28;20897;-77
2022/05/03 11:01:31;;;;;;;3.35;2.80;;;23.10;99.90;;;;;;5017967;28;20195;-77
2022/05/03 11:04:16;;;;;;;3.47;2.47;;;23.40;99.90;;;;;;5024852;28;20219;-76
2022/05/03 11:06:47;;;;;;;3.25;2.60;;;23.40;99.90;;;;;;5027676;28;20574;-76
2022/05/03 11:09:18;;;;;;;3.13;2.83;;;23.40;99.90;;;;;;5024677;28;20216;-76
2022/05/03 11:12:06;;;;;;;4.25;2.80;;;23.30;99.90;;;;;;5023010;28;20243;-77
2022/05/03 11:14:51;;;;;;;2.60;2.40;;;23.00;99.90;;;;;;5016542;28;20250;-76
2022/05/03 11:17:18;;;;;;;2.50;2.30;;;23.30;99.90;;;;;;5025835;28;20227;-76
2022/05/03 11:19:58;;;;;;;3.20;2.90;;;23.50;99.90;;;;;;5020401;28;20183;-77
2022/05/03 11:22:30;;;;;;;2.90;2.70;;;23.30;99.90;;;;;;5020734;28;20442;-76
2022/05/03 11:24:59;;;;;;;2.95;2.67;;;23.50;99.90;;;;;;5022889;28;20215;-77
2022/05/03 11:27:27;;;;;;;3.10;2.50;;;23.50;99.90;;;;;;5027677;28;20247;-76
2022/05/03 11:29:59;;;;;;;2.63;2.42;;;23.60;99.90;;;;;;5032793;28;20440;-76
2022/05/03 11:32:32;;;;;;;4.82;2.80;;;23.70;99.90;;;;;;5022687;28;20242;-76
2022/05/03 11:35:10;;;;;;;3.40;2.88;;;23.80;99.90;;;;;;5025428;28;20225;-77
2022/05/03 11:37:46;;;;;;;3.60;3.00;;;23.70;99.90;;;;;;5027099;28;20273;-77
2022/05/03 11:40:15;;;;;;;2.95;2.75;;;23.70;99.90;;;;;;5027321;28;20198;-74
2022/05/03 11:42:44;;;;;;;3.25;2.95;;;23.70;99.90;;;;;;5029384;28;20690;-76
2022/05/03 11:45:12;;;;;;;2.88;2.58;;;23.70;99.90;;;;;;5020370;28;20330;-77
2022/05/03 11:47:42;;;;;;;3.10;2.75;;;24.10;99.90;;;;;;5017362;28;20239;-76
2022/05/03 11:50:12;;;;;;;2.58;2.45;;;24.40;99.90;;;;;;5016344;28;20706;-76
2022/05/03 11:58:11;;;;;;;4.10;2.78;;;24.60;99.90;;;;;;5020174;28;20227;-76
2022/05/03 12:00:46;;;;;;;2.45;2.25;;;24.70;99.90;;;;;;5018331;28;20289;-75
2022/05/03 12:03:13;;;;;;;3.85;2.75;;;25.00;99.90;;;;;;5018541;28;20892;-75
2022/05/03 12:05:41;;;;;;;2.80;2.60;;;24.80;99.90;;;;;;5020041;28;20207;-76
2022/05/03 12:08:20;;;;;;;4.35;2.60;;;24.50;99.90;;;;;;5022140;28;20694;-75
2022/05/03 12:10:49;;;;;;;3.47;2.70;;;24.50;99.90;;;;;;5025935;28;20263;-76
2022/05/03 12:13:18;;;;;;;5.22;3.25;;;24.60;99.90;;;;;;5022200;28;20230;-75
2022/05/03 12:15:46;;;;;;;3.55;2.70;;;24.60;99.90;;;;;;5023445;28;20679;-74
2022/05/03 12:18:16;;;;;;;2.50;2.30;;;24.50;99.90;;;;;;5031018;28;20294;-74
2022/05/03 12:20:49;;;;;;;3.00;2.78;;;24.40;99.90;;;;;;5027770;28;20292;-74
2022/05/03 12:23:20;;;;;;;3.15;2.83;;;24.00;99.90;;;;;;5021613;28;20293;-77
2022/05/03 12:25:50;;;;;;;3.58;2.53;;;23.80;99.90;;;;;;5025852;28;20452;-74
2022/05/03 12:28:18;;;;;;;2.53;2.33;;;23.80;99.90;;;;;;5020171;28;20300;-75
2022/05/03 12:30:46;;;;;;;2.88;2.38;;;23.80;99.90;;;;;;5023889;28;20515;-75
2022/05/03 12:33:15;;;;;;;2.47;2.28;;;23.80;99.90;;;;;;5022082;28;20233;-77
2022/05/03 12:35:43;;;;;;;2.85;2.65;;;24.00;99.90;;;;;;5026319;28;20349;-75
2022/05/03 12:38:15;;;;;;;3.28;2.70;;;23.90;99.90;;;;;;5025710;28;20230;-75
2022/05/03 12:40:47;;;;;;;2.63;2.42;;;23.90;99.90;;;;;;5023055;28;20204;-75
2022/05/03 12:43:16;;;;;;;2.63;2.42;;;23.50;99.90;;;;;;5026464;28;20696;-75
2022/05/03 12:45:43;;;;;;;4.22;2.63;;;23.10;99.90;;;;;;5022381;28;20497;-75
2022/05/03 12:48:10;;;;;;;2.92;2.40;;;23.00;99.90;;;;;;5025324;28;21032;-75
2022/05/03 12:50:38;;;;;;;2.85;2.63;;;23.50;99.90;;;;;;5022702;28;20208;-75
2022/05/03 12:53:05;;;;;;;2.63;2.47;;;24.10;99.90;;;;;;5034228;28;20314;-74
2022/05/03 12:55:32;;;;;;;6.78;2.85;;;24.40;99.90;;;;;;5027959;28;20685;-75
2022/05/03 13:00:45;;;;;;;7.30;3.78;;;23.80;99.90;;;;;;5026752;28;20213;-75
2022/05/03 13:03:13;;;;;;;4.07;2.92;;;23.80;99.90;;;;;;5021546;28;20668;-74
2022/05/03 13:05:40;;;;;;;3.45;3.15;;;23.80;99.90;;;;;;5025723;28;20195;-74
2022/05/03 13:08:07;;;;;;;4.40;3.10;;;23.60;99.90;;;;;;5023019;28;20297;-74
2022/05/03 13:10:34;;;;;;;3.10;2.75;;;23.60;99.90;;;;;;5024140;28;20219;-74
2022/05/03 13:13:05;;;;;;;3.45;2.90;;;23.50;99.90;;;;;;5034518;28;20222;-74
2022/05/03 13:15:32;;;;;;;3.08;2.88;;;23.40;99.90;;;;;;5029416;28;20297;-71
2022/05/03 13:18:00;;;;;;;4.65;2.70;;;23.20;99.90;;;;;;5025110;28;20223;-73
2022/05/03 13:20:27;;;;;;;3.50;2.92;;;23.30;99.90;;;;;;5026172;28;20198;-73
2022/05/03 13:22:54;;;;;;;5.05;2.92;;;23.30;99.90;;;;;;5025082;28;20219;-74
2022/05/03 13:25:22;;;;;;;3.95;2.97;;;23.10;99.90;;;;;;5028281;28;20198;-75
2022/05/03 13:27:50;;;;;;;5.35;2.80;;;23.10;99.90;;;;;;5027785;28;20246;-75
2022/05/03 13:30:18;;;;;;;4.60;2.90;;;23.10;99.90;;;;;;5028008;28;20313;-73
2022/05/03 13:32:45;;;;;;;6.95;2.83;;;23.00;99.80;;;;;;5024952;28;20223;-73
2022/05/03 13:35:12;;;;;;;2.65;2.33;;;23.20;99.90;;;;;;5030799;28;20223;-72
2022/05/03 13:40:30;;;;;;;3.65;2.33;;;23.00;98.50;;;;;;5020776;28;21043;-74
2022/05/03 13:42:58;;;;;;;4.38;2.30;;;23.10;99.00;;;;;;5030664;28;20223;-74
2022/05/03 13:45:27;;;;;;;4.10;2.70;;;23.40;99.60;;;;;;5024018;28;20199;-74